Time;durP1;ratioP1;P1;durP2;ratioP2;P2;SDS_P1;SDS_P2;PMS_P1;PMS_P2;Temp;Humidity;BMP_temperature;BMP_pressure;BME280_temperature;BME280_humidity;BME280_pressure;Samples;Min_cycle;Max_cycle;Signal;HPM_P1;HPM_P2
2022/10/13 00:01:09;;;;;;;;;;;17.90;99.70;;;;;;5013817;28;19905;-24
2022/10/13 00:03:35;;;;;;;;;;;17.80;99.40;;;;;;5013370;28;19905;-24
2022/10/13 00:06:03;;;;;;;;;;;17.90;99.50;;;;;;5013695;28;19911;-25
2022/10/13 00:08:29;;;;;;;;;;;17.80;99.40;;;;;;5013497;28;20260;-25
2022/10/13 00:10:54;;;;;;;;;;;17.80;99.40;;;;;;5013567;28;20232;-24
2022/10/13 00:13:20;;;;;;;;;;;17.80;99.40;;;;;;5013400;28;19959;-25
2022/10/13 00:15:46;;;;;;;;;;;17.80;99.40;;;;;;5012329;28;19905;-24
2022/10/13 00:18:12;;;;;;;;;;;17.80;99.50;;;;;;5013626;28;20260;-25
2022/10/13 00:20:44;;;;;;;;;;;17.80;99.40;;;;;;5013259;28;20390;-26
2022/10/13 00:23:10;;;;;;;;;;;17.80;99.50;;;;;;5013107;28;20000;-25
2022/10/13 00:25:39;;;;;;;;;;;17.80;99.50;;;;;;5013693;28;19973;-24
2022/10/13 00:28:04;;;;;;;;;;;17.80;99.80;;;;;;5013165;28;20323;-24
2022/10/13 00:30:32;;;;;;;;;;;17.80;99.50;;;;;;5013220;28;19944;-24
2022/10/13 00:32:58;;;;;;;;;;;17.80;99.40;;;;;;5013159;28;19952;-25
2022/10/13 00:35:23;;;;;;;;;;;17.80;99.40;;;;;;5013261;28;19909;-24
2022/10/13 00:37:49;;;;;;;;;;;17.80;99.40;;;;;;5013121;28;19932;-24
2022/10/13 00:40:14;;;;;;;;;;;17.80;99.30;;;;;;5013182;28;19916;-24
2022/10/13 00:42:40;;;;;;;;;;;17.80;99.40;;;;;;5011699;28;20000;-24
2022/10/13 00:45:22;;;;;;;;;;;17.80;99.40;;;;;;5012979;28;19905;-24
2022/10/13 00:47:50;;;;;;;;;;;17.80;99.40;;;;;;5013534;28;19905;-24
2022/10/13 00:50:21;;;;;;;;;;;17.80;99.40;;;;;;5012845;28;19963;-24
2022/10/13 00:52:48;;;;;;;;;;;17.80;99.40;;;;;;5012716;28;20056;-24
2022/10/13 00:55:16;;;;;;;;;;;17.80;99.40;;;;;;5013007;28;19996;-24
2022/10/13 00:57:43;;;;;;;;;;;17.80;99.40;;;;;;5012791;28;20341;-25
2022/10/13 01:00:08;;;;;;;;;;;17.80;99.40;;;;;;5012240;28;20004;-25
2022/10/13 01:02:37;;;;;;;;;;;17.70;99.30;;;;;;5012156;28;19957;-27
2022/10/13 01:05:03;;;;;;;;;;;17.70;99.30;;;;;;5012521;28;19905;-27
2022/10/13 01:07:29;;;;;;;;;;;17.80;99.40;;;;;;5012339;28;19953;-25
2022/10/13 01:09:55;;;;;;;;;;;17.80;99.30;;;;;;5012330;28;19910;-27
2022/10/13 01:12:21;;;;;;;;;;;17.70;99.30;;;;;;5012427;28;20409;-27
2022/10/13 01:15:05;;;;;;;;;;;17.70;99.30;;;;;;5011008;28;19914;-26
2022/10/13 01:17:30;;;;;;;;;;;17.70;99.30;;;;;;5012297;28;19906;-27
2022/10/13 01:20:14;;;;;;;;;;;17.70;99.30;;;;;;5035026;22;19977;-22
2022/10/13 01:22:58;;;;;;;;;;;17.70;99.40;;;;;;5011624;28;19943;-23
2022/10/13 01:25:24;;;;;;;;;;;17.70;99.40;;;;;;5012266;28;19913;-23
2022/10/13 01:27:58;;;;;;;;;;;17.70;99.40;;;;;;5010969;28;19905;-23
2022/10/13 01:30:24;;;;;;;;;;;17.70;99.30;;;;;;5010600;28;19909;-24
2022/10/13 01:32:56;;;;;;;;;;;17.70;99.30;;;;;;5011991;28;19913;-24
2022/10/13 01:35:24;;;;;;;;;;;17.70;99.40;;;;;;5012176;28;19905;-23
2022/10/13 01:37:52;;;;;;;;;;;17.70;99.30;;;;;;5012150;28;19905;-24
2022/10/13 01:40:37;;;;;;;;;;;17.70;99.40;;;;;;5012055;28;20297;-23
2022/10/13 01:43:17;;;;;;;;;;;17.70;99.40;;;;;;5010737;28;19920;-23
2022/10/13 01:45:48;;;;;;;;;;;17.70;99.40;;;;;;5012662;28;20325;-23
2022/10/13 01:48:15;;;;;;;;;;;17.70;99.40;;;;;;5012242;28;19964;-24
2022/10/13 01:50:41;;;;;;;;;;;17.70;99.40;;;;;;5010516;28;19966;-23
2022/10/13 01:53:07;;;;;;;;;;;17.70;99.40;;;;;;5011884;28;19988;-23
2022/10/13 01:55:32;;;;;;;;;;;17.70;99.40;;;;;;5012132;28;19910;-23
2022/10/13 01:57:58;;;;;;;;;;;17.70;99.50;;;;;;5012019;28;19988;-23
2022/10/13 02:00:24;;;;;;;;;;;17.70;99.40;;;;;;5011941;28;19916;-23
2022/10/13 02:03:09;;;;;;;;;;;17.70;99.50;;;;;;5010227;28;20426;-23
2022/10/13 02:05:48;;;;;;;;;;;17.70;99.50;;;;;;5011782;28;20293;-23
2022/10/13 02:08:32;;;;;;;;;;;17.70;99.40;;;;;;5010428;28;19913;-23
2022/10/13 02:11:00;;;;;;;;;;;17.70;99.50;;;;;;5011458;28;20031;-23
2022/10/13 02:13:28;;;;;;;;;;;17.70;99.50;;;;;;5014688;28;20348;-23
2022/10/13 02:15:55;;;;;;;;;;;17.70;99.50;;;;;;5015376;28;20366;-23
2022/10/13 02:18:24;;;;;;;;;;;17.70;99.50;;;;;;5015134;28;19912;-23
2022/10/13 02:20:49;;;;;;;;;;;17.70;99.50;;;;;;5015205;28;20466;-23
2022/10/13 02:23:16;;;;;;;;;;;17.70;99.50;;;;;;5014979;28;19992;-23
2022/10/13 02:25:42;;;;;;;;;;;17.60;99.50;;;;;;5015443;28;19906;-23
2022/10/13 02:28:08;;;;;;;;;;;17.60;99.50;;;;;;5015108;28;19905;-23
2022/10/13 02:30:33;;;;;;;;;;;17.60;99.60;;;;;;5015404;28;19963;-23
2022/10/13 02:33:00;;;;;;;;;;;17.60;99.60;;;;;;5014628;28;19915;-23
2022/10/13 02:35:25;;;;;;;;;;;17.60;99.60;;;;;;5013626;28;20015;-23
2022/10/13 02:37:51;;;;;;;;;;;17.60;99.60;;;;;;5014881;28;20000;-23
2022/10/13 02:40:16;;;;;;;;;;;17.60;99.60;;;;;;5014818;28;19905;-23
2022/10/13 02:42:42;;;;;;;;;;;17.60;99.60;;;;;;5015335;28;19956;-23
2022/10/13 02:45:08;;;;;;;;;;;17.60;99.60;;;;;;5015736;28;19928;-23
2022/10/13 02:47:33;;;;;;;;;;;17.60;99.60;;;;;;5015051;28;19956;-23
2022/10/13 02:49:59;;;;;;;;;;;17.60;99.60;;;;;;5014820;28;19917;-23
2022/10/13 02:52:24;;;;;;;;;;;17.60;99.60;;;;;;5014542;28;19951;-23
2022/10/13 02:54:50;;;;;;;;;;;17.60;99.60;;;;;;5014705;28;19948;-24
2022/10/13 02:57:16;;;;;;;;;;;17.60;99.60;;;;;;5014555;28;19905;-23
2022/10/13 02:59:42;;;;;;;;;;;17.60;99.60;;;;;;5014903;28;19909;-23
2022/10/13 03:02:07;;;;;;;;;;;17.60;99.60;;;;;;5014343;28;20048;-23
2022/10/13 03:04:33;;;;;;;;;;;17.60;99.60;;;;;;5014264;28;20010;-23
2022/10/13 03:06:58;;;;;;;;;;;17.60;99.70;;;;;;5014381;28;20268;-23
2022/10/13 03:09:24;;;;;;;;;;;17.60;99.70;;;;;;5014387;28;19905;-23
2022/10/13 03:11:49;;;;;;;;;;;17.60;99.70;;;;;;5014198;28;19913;-23
2022/10/13 03:14:15;;;;;;;;;;;17.60;99.70;;;;;;5014163;28;19905;-23
2022/10/13 03:16:40;;;;;;;;;;;17.60;99.70;;;;;;5014177;28;20325;-23
2022/10/13 03:19:06;;;;;;;;;;;17.60;99.70;;;;;;5014243;28;19905;-23
2022/10/13 03:21:32;;;;;;;;;;;17.60;99.70;;;;;;5014151;28;19920;-23
2022/10/13 03:23:57;;;;;;;;;;;17.60;99.70;;;;;;5013161;28;20256;-23
2022/10/13 03:26:22;;;;;;;;;;;17.50;99.70;;;;;;5014084;28;19913;-23
2022/10/13 03:28:49;;;;;;;;;;;17.50;99.70;;;;;;5013976;28;19910;-23
2022/10/13 03:31:14;;;;;;;;;;;17.50;99.70;;;;;;5013740;28;19909;-23
2022/10/13 03:33:40;;;;;;;;;;;17.50;99.70;;;;;;5013640;28;19959;-23
2022/10/13 03:36:06;;;;;;;;;;;17.50;99.70;;;;;;5013846;28;20354;-23
2022/10/13 03:38:32;;;;;;;;;;;17.50;99.80;;;;;;5013780;28;19965;-23
2022/10/13 03:41:03;;;;;;;;;;;17.60;99.80;;;;;;5013873;28;19906;-23
2022/10/13 03:43:28;;;;;;;;;;;17.50;99.80;;;;;;5014034;28;19905;-23
2022/10/13 03:45:55;;;;;;;;;;;17.50;99.80;;;;;;5013613;28;20297;-23
2022/10/13 03:48:20;;;;;;;;;;;17.50;99.80;;;;;;5013793;28;19912;-23
2022/10/13 03:50:46;;;;;;;;;;;17.50;99.80;;;;;;5013474;28;19999;-23
2022/10/13 03:53:11;;;;;;;;;;;17.50;99.80;;;;;;5013345;28;19906;-23
2022/10/13 03:55:37;;;;;;;;;;;17.50;99.90;;;;;;5013470;28;20000;-23
2022/10/13 03:58:02;;;;;;;;;;;17.50;99.80;;;;;;5013451;28;20297;-23
2022/10/13 04:00:28;;;;;;;;;;;17.50;99.80;;;;;;5013367;28;19917;-23
2022/10/13 04:02:53;;;;;;;;;;;17.50;99.80;;;;;;5013360;28;19912;-23
2022/10/13 04:05:19;;;;;;;;;;;17.50;99.90;;;;;;5013315;28;19905;-23
2022/10/13 04:07:44;;;;;;;;;;;17.50;99.80;;;;;;5013308;28;19960;-23
2022/10/13 04:10:10;;;;;;;;;;;17.50;99.80;;;;;;5013239;28;19955;-23
2022/10/13 04:12:35;;;;;;;;;;;17.50;99.80;;;;;;5011775;28;20389;-23
2022/10/13 04:15:01;;;;;;;;;;;17.50;99.90;;;;;;5012978;28;19917;-23
2022/10/13 04:17:26;;;;;;;;;;;17.50;99.90;;;;;;5013100;28;19948;-23
2022/10/13 04:19:52;;;;;;;;;;;17.40;99.90;;;;;;5012885;28;20411;-23
2022/10/13 04:22:17;;;;;;;;;;;17.40;99.90;;;;;;5013078;28;19909;-23
2022/10/13 04:24:43;;;;;;;;;;;17.50;99.90;;;;;;5012792;28;19916;-23
2022/10/13 04:27:09;;;;;;;;;;;17.50;99.90;;;;;;5012882;28;19960;-23
2022/10/13 04:29:34;;;;;;;;;;;17.50;99.90;;;;;;5012677;28;19967;-23
2022/10/13 04:32:00;;;;;;;;;;;17.50;99.90;;;;;;5012635;28;20290;-23
2022/10/13 04:34:25;;;;;;;;;;;17.50;99.90;;;;;;5012523;28;19959;-23
2022/10/13 04:36:51;;;;;;;;;;;17.40;99.90;;;;;;5010667;28;19985;-23
2022/10/13 04:39:17;;;;;;;;;;;17.40;99.90;;;;;;5024193;28;19905;-23
2022/10/13 04:41:43;;;;;;;;;;;17.40;99.90;;;;;;5025283;28;19973;-23
2022/10/13 04:44:08;;;;;;;;;;;17.40;99.90;;;;;;5017501;28;19949;-23
2022/10/13 04:46:34;;;;;;;;;;;17.40;99.90;;;;;;5013350;28;20434;-23
2022/10/13 04:49:00;;;;;;;;;;;17.40;99.90;;;;;;5013199;28;20267;-23
2022/10/13 04:51:25;;;;;;;;;;;17.40;99.90;;;;;;5012756;28;19909;-23
2022/10/13 04:53:58;;;;;;;;;;;17.40;99.90;;;;;;5012701;28;20006;-23
2022/10/13 04:56:24;;;;;;;;;;;17.40;99.90;;;;;;5012650;28;19914;-23
2022/10/13 04:58:49;;;;;;;;;;;17.40;99.90;;;;;;5012367;28;20389;-23
2022/10/13 05:01:16;;;;;;;;;;;17.40;99.90;;;;;;5012450;28;19910;-23
2022/10/13 05:03:42;;;;;;;;;;;17.40;99.90;;;;;;5012453;28;19913;-23
2022/10/13 05:06:18;;;;;;;;;;;17.40;99.90;;;;;;5012592;28;20362;-23
2022/10/13 05:08:44;;;;;;;;;;;17.40;99.90;;;;;;5012451;28;19957;-23
2022/10/13 05:11:10;;;;;;;;;;;17.40;99.90;;;;;;5012052;28;20424;-23
2022/10/13 05:13:35;;;;;;;;;;;17.40;99.90;;;;;;5012179;28;19997;-23
2022/10/13 05:16:11;;;;;;;;;;;17.40;99.90;;;;;;5012251;28;19913;-23
2022/10/13 05:18:37;;;;;;;;;;;17.40;99.90;;;;;;5011336;28;20266;-23
2022/10/13 05:21:10;;;;;;;;;;;17.40;99.90;;;;;;5011977;28;20008;-23
2022/10/13 05:23:36;;;;;;;;;;;17.40;99.90;;;;;;5011763;28;20358;-23
2022/10/13 05:26:05;;;;;;;;;;;17.30;99.90;;;;;;5012153;28;19928;-23
2022/10/13 05:28:31;;;;;;;;;;;17.30;99.90;;;;;;5011939;28;19909;-23
2022/10/13 05:30:56;;;;;;;;;;;17.30;99.90;;;;;;5011876;28;19915;-23
2022/10/13 05:33:22;;;;;;;;;;;17.30;99.90;;;;;;5011811;28;19928;-23
2022/10/13 05:35:48;;;;;;;;;;;17.30;99.90;;;;;;5011875;28;19948;-23
2022/10/13 05:38:13;;;;;;;;;;;17.30;99.90;;;;;;5011750;28;19909;-23
2022/10/13 05:40:39;;;;;;;;;;;17.30;99.90;;;;;;5012175;28;19913;-23
2022/10/13 05:43:04;;;;;;;;;;;17.30;99.90;;;;;;5011591;28;19906;-23
2022/10/13 05:45:31;;;;;;;;;;;17.30;99.90;;;;;;5011756;28;19913;-23
2022/10/13 05:47:57;;;;;;;;;;;17.30;99.90;;;;;;5014452;28;19912;-23
2022/10/13 05:50:22;;;;;;;;;;;17.30;99.90;;;;;;5015789;28;19909;-23
2022/10/13 05:52:48;;;;;;;;;;;17.30;99.90;;;;;;5015499;28;20358;-23
2022/10/13 05:55:16;;;;;;;;;;;17.30;99.90;;;;;;5017233;28;19905;-23
2022/10/13 05:57:44;;;;;;;;;;;17.30;99.90;;;;;;5017024;28;20267;-23
2022/10/13 06:00:11;;;;;;;;;;;17.30;99.90;;;;;;5015813;28;19906;-23
2022/10/13 06:02:43;;;;;;;;;;;17.30;99.90;;;;;;5015527;28;19949;-23
2022/10/13 06:05:12;;;;;;;;;;;17.30;99.90;;;;;;5015733;28;19914;-23
2022/10/13 06:07:38;;;;;;;;;;;17.30;99.90;;;;;;5015608;28;20374;-23
2022/10/13 06:10:03;;;;;;;;;;;17.30;99.90;;;;;;5015372;28;20000;-23
2022/10/13 06:12:29;;;;;;;;;;;17.30;99.90;;;;;;5015322;28;19906;-23
2022/10/13 06:14:54;;;;;;;;;;;17.30;99.90;;;;;;5015511;28;19905;-23
2022/10/13 06:17:20;;;;;;;;;;;17.30;99.90;;;;;;5015356;28;19941;-23
2022/10/13 06:19:46;;;;;;;;;;;17.30;99.90;;;;;;5015645;28;20318;-22
2022/10/13 06:22:11;;;;;;;;;;;17.30;99.90;;;;;;5015203;28;19909;-23
2022/10/13 06:24:37;;;;;;;;;;;17.30;99.90;;;;;;5015282;28;19952;-23
2022/10/13 06:27:02;;;;;;;;;;;17.30;99.90;;;;;;5015235;28;20295;-23
2022/10/13 06:29:28;;;;;;;;;;;17.30;99.90;;;;;;5013785;28;19956;-23
2022/10/13 06:31:53;;;;;;;;;;;17.30;99.90;;;;;;5015133;28;19913;-23
2022/10/13 06:34:19;;;;;;;;;;;17.30;99.90;;;;;;5015030;28;19909;-23
2022/10/13 06:36:44;;;;;;;;;;;17.30;99.90;;;;;;5015582;28;19917;-23
2022/10/13 06:39:10;;;;;;;;;;;17.30;99.90;;;;;;5015412;28;19905;-23
2022/10/13 06:41:35;;;;;;;;;;;17.20;99.90;;;;;;5015216;28;19912;-23
2022/10/13 06:44:01;;;;;;;;;;;17.20;99.90;;;;;;5014726;28;19905;-23
2022/10/13 06:46:26;;;;;;;;;;;17.20;99.90;;;;;;5015208;28;20275;-23
2022/10/13 06:48:52;;;;;;;;;;;17.20;99.90;;;;;;5015185;28;20004;-24
2022/10/13 06:51:18;;;;;;;;;;;17.20;99.90;;;;;;5015555;28;20006;-23
2022/10/13 06:53:43;;;;;;;;;;;17.20;99.90;;;;;;5013603;28;19981;-23
2022/10/13 06:56:09;;;;;;;;;;;17.20;99.90;;;;;;5015670;28;19945;-23
2022/10/13 06:58:35;;;;;;;;;;;17.20;99.90;;;;;;5012610;28;19909;-23
2022/10/13 07:01:01;;;;;;;;;;;17.20;99.90;;;;;;5014011;28;19959;-24
2022/10/13 07:03:27;;;;;;;;;;;17.20;99.90;;;;;;5015011;28;19905;-23
2022/10/13 07:05:52;;;;;;;;;;;17.20;99.90;;;;;;5015320;28;19905;-23
2022/10/13 07:08:18;;;;;;;;;;;17.20;99.90;;;;;;5015650;28;19987;-23
2022/10/13 07:10:43;;;;;;;;;;;17.20;99.90;;;;;;5015482;28;19913;-23
2022/10/13 07:13:09;;;;;;;;;;;17.20;99.90;;;;;;5015364;28;19905;-24
2022/10/13 07:15:38;;;;;;;;;;;17.20;99.90;;;;;;5014856;28;19912;-23
2022/10/13 07:18:04;;;;;;;;;;;17.20;99.90;;;;;;5015204;28;20048;-23
2022/10/13 07:20:33;;;;;;;;;;;17.20;99.90;;;;;;5014968;28;20224;-41
2022/10/13 07:22:58;;;;;;;;;;;17.20;99.90;;;;;;5014691;28;19905;-24
2022/10/13 07:25:24;;;;;;;;;;;17.20;99.90;;;;;;5013557;28;19956;-24
2022/10/13 07:27:49;;;;;;;;;;;17.20;99.90;;;;;;5014751;28;19905;-23
2022/10/13 07:30:15;;;;;;;;;;;17.20;99.90;;;;;;5014882;28;19909;-24
2022/10/13 07:32:41;;;;;;;;;;;17.20;99.90;;;;;;5014684;28;20371;-23
2022/10/13 07:35:10;;;;;;;;;;;17.20;99.90;;;;;;5014722;28;20450;-23
2022/10/13 07:37:36;;;;;;;;;;;17.20;99.90;;;;;;5014798;28;20363;-24
2022/10/13 07:40:02;;;;;;;;;;;17.20;99.90;;;;;;5014474;28;19905;-24
2022/10/13 07:42:28;;;;;;;;;;;17.20;99.90;;;;;;5014347;28;19906;-24
2022/10/13 07:44:53;;;;;;;;;;;17.20;99.90;;;;;;5014366;28;20239;-24
2022/10/13 07:47:19;;;;;;;;;;;17.20;99.90;;;;;;5014552;28;19905;-23
2022/10/13 07:49:45;;;;;;;;;;;17.20;99.90;;;;;;5014423;28;19909;-23
2022/10/13 07:52:10;;;;;;;;;;;17.20;99.90;;;;;;5014351;28;20432;-24
2022/10/13 07:54:36;;;;;;;;;;;17.10;99.90;;;;;;5014163;28;19906;-23
2022/10/13 07:57:02;;;;;;;;;;;17.20;99.90;;;;;;5014564;28;19912;-24
2022/10/13 07:59:27;;;;;;;;;;;17.10;99.90;;;;;;5014552;28;19906;-23
2022/10/13 08:01:53;;;;;;;;;;;17.20;99.90;;;;;;5014153;28;19913;-24
2022/10/13 08:04:18;;;;;;;;;;;17.10;99.90;;;;;;5013858;28;19916;-23
2022/10/13 08:06:44;;;;;;;;;;;17.20;99.90;;;;;;5013736;28;19914;-23
2022/10/13 08:09:10;;;;;;;;;;;17.20;99.90;;;;;;5013798;28;19969;-24
2022/10/13 08:11:35;;;;;;;;;;;17.20;99.90;;;;;;5013176;28;19952;-24
2022/10/13 08:14:01;;;;;;;;;;;17.10;99.90;;;;;;5013603;28;19905;-23
2022/10/13 08:16:30;;;;;;;;;;;17.10;99.90;;;;;;5013545;28;19912;-23
2022/10/13 08:18:56;;;;;;;;;;;17.20;99.90;;;;;;5013643;28;19955;-23
2022/10/13 08:21:22;;;;;;;;;;;17.20;99.90;;;;;;5013072;28;20004;-23
2022/10/13 08:23:48;;;;;;;;;;;17.10;99.90;;;;;;5012943;28;19968;-23
2022/10/13 08:26:18;;;;;;;;;;;16.90;99.90;;;;;;5013090;28;19916;-23
2022/10/13 08:28:44;;;;;;;;;;;16.80;99.90;;;;;;5013754;28;19909;-23
2022/10/13 08:31:09;;;;;;;;;;;16.70;99.90;;;;;;5012862;28;20457;-24
2022/10/13 08:33:35;;;;;;;;;;;16.50;99.90;;;;;;5013726;28;19909;-24
2022/10/13 08:36:00;;;;;;;;;;;16.50;99.90;;;;;;5013515;28;19905;-24
2022/10/13 08:38:26;;;;;;;;;;;16.60;99.90;;;;;;5013832;28;20286;-24
2022/10/13 08:40:52;;;;;;;;;;;16.80;99.90;;;;;;5013709;28;19905;-24
2022/10/13 08:43:19;;;;;;;;;;;16.80;99.90;;;;;;5014109;28;20367;-24
2022/10/13 08:45:45;;;;;;;;;;;16.90;99.90;;;;;;5013875;28;19906;-24
2022/10/13 08:48:14;;;;;;;;;;;17.00;99.90;;;;;;5013930;28;19913;-24
2022/10/13 08:50:41;;;;;;;;;;;17.10;99.90;;;;;;5012931;28;19910;-24
2022/10/13 08:53:12;;;;;;;;;;;17.20;99.90;;;;;;5012734;28;20389;-24
2022/10/13 08:55:48;;;;;;;;;;;17.20;99.90;;;;;;5010781;28;19905;-24
2022/10/13 08:58:22;;;;;;;;;;;17.20;99.90;;;;;;5012487;28;19940;-24
2022/10/13 09:00:50;;;;;;;;;;;17.30;99.90;;;;;;5012610;28;20000;-24
2022/10/13 09:03:22;;;;;;;;;;;17.20;99.90;;;;;;5012101;28;19967;-24
2022/10/13 09:06:07;;;;;;;;;;;17.30;99.90;;;;;;5011707;28;20454;-24
2022/10/13 09:08:36;;;;;;;;;;;17.30;99.90;;;;;;5012956;28;19948;-24
2022/10/13 09:11:02;;;;;;;;;;;17.30;99.90;;;;;;5012983;28;20737;-24
2022/10/13 09:13:27;;;;;;;;;;;17.30;99.90;;;;;;5012622;28;19910;-24
2022/10/13 09:15:55;;;;;;;;;;;17.30;99.90;;;;;;5012923;28;19929;-24
2022/10/13 09:18:26;;;;;;;;;;;17.30;99.90;;;;;;5012913;28;19905;-24
2022/10/13 09:21:07;;;;;;;;;;;17.30;99.90;;;;;;5011331;28;19948;-24
2022/10/13 09:23:33;;;;;;;;;;;17.10;99.90;;;;;;5012164;28;19910;-24
2022/10/13 09:26:04;;;;;;;;;;;17.10;99.90;;;;;;5012819;28;19964;-24
2022/10/13 09:28:31;;;;;;;;;;;17.10;99.90;;;;;;5012796;28;19999;-24
2022/10/13 09:31:22;;;;;;;;;;;17.10;99.90;;;;;;5012780;28;19909;-24
2022/10/13 09:33:58;;;;;;;;;;;17.10;99.90;;;;;;5011408;28;19906;-24
2022/10/13 09:36:24;;;;;;;;;;;17.10;99.90;;;;;;5012811;28;20400;-24
2022/10/13 09:39:08;;;;;;;;;;;17.10;99.90;;;;;;5012676;28;19905;-24
2022/10/13 09:41:34;;;;;;;;;;;17.20;99.90;;;;;;5012378;28;20185;-24
2022/10/13 09:44:06;;;;;;;;;;;17.20;99.90;;;;;;5012185;28;19906;-24
2022/10/13 09:46:34;;;;;;;;;;;17.20;99.90;;;;;;5012732;28;20285;-24
2022/10/13 09:49:07;;;;;;;;;;;17.20;99.90;;;;;;5012432;28;19944;-24
2022/10/13 09:51:35;;;;;;;;;;;17.20;99.90;;;;;;5012143;28;20001;-24
2022/10/13 09:54:00;;;;;;;;;;;17.30;99.90;;;;;;5011909;28;19906;-24
2022/10/13 09:56:33;;;;;;;;;;;17.20;99.90;;;;;;5010908;28;19925;-24
2022/10/13 09:59:19;;;;;;;;;;;17.30;99.90;;;;;;5012245;28;19912;-24
2022/10/13 10:01:46;;;;;;;;;;;17.30;99.90;;;;;;5011732;28;19906;-24
2022/10/13 10:04:15;;;;;;;;;;;17.30;99.90;;;;;;5012205;28;20386;-24
2022/10/13 10:06:41;;;;;;;;;;;17.30;99.90;;;;;;5011066;28;20312;-24
2022/10/13 10:09:12;;;;;;;;;;;17.30;99.90;;;;;;5012030;28;19959;-24
2022/10/13 10:11:40;;;;;;;;;;;17.30;99.90;;;;;;5012385;28;20354;-24
2022/10/13 10:14:28;;;;;;;;;;;17.20;99.90;;;;;;5012088;28;19912;-24
2022/10/13 10:17:00;;;;;;;;;;;17.20;99.90;;;;;;5010054;28;19909;-24
2022/10/13 10:19:30;;;;;;;;;;;17.20;99.90;;;;;;5013876;28;20274;-24
2022/10/13 10:21:57;;;;;;;;;;;17.20;99.90;;;;;;5013508;28;20664;-24
2022/10/13 10:24:35;;;;;;;;;;;17.20;99.90;;;;;;5011624;28;19912;-24
2022/10/13 10:27:15;;;;;;;;;;;17.20;99.90;;;;;;5013329;28;19905;-24
2022/10/13 10:30:00;;;;;;;;;;;17.20;99.90;;;;;;5013201;28;20401;-24
2022/10/13 10:32:27;;;;;;;;;;;17.10;99.90;;;;;;5012863;28;19948;-24
2022/10/13 10:34:58;;;;;;;;;;;17.20;99.90;;;;;;5016514;28;20356;-24
2022/10/13 10:37:35;;;;;;;;;;;17.20;99.90;;;;;;5015916;28;19917;-24
2022/10/13 10:40:13;;;;;;;;;;;17.30;99.90;;;;;;5015852;28;19905;-24
2022/10/13 10:42:42;;;;;;;;;;;17.30;99.90;;;;;;5015774;28;19905;-24
2022/10/13 10:45:14;;;;;;;;;;;17.40;99.90;;;;;;5015861;28;19967;-24
2022/10/13 10:47:41;;;;;;;;;;;17.40;99.90;;;;;;5015818;28;19905;-24
2022/10/13 10:50:07;;;;;;;;;;;17.40;99.90;;;;;;5015448;28;20286;-24
2022/10/13 10:52:56;;;;;;;;;;;17.40;99.90;;;;;;5014129;28;19996;-24
2022/10/13 10:55:32;;;;;;;;;;;17.40;99.90;;;;;;5005179;28;19959;-24
2022/10/13 10:58:06;;;;;;;;;;;17.40;99.90;;;;;;5015454;28;19996;-24
2022/10/13 11:00:37;;;;;;;;;;;17.40;99.90;;;;;;5015378;28;20397;-24
2022/10/13 11:03:08;;;;;;;;;;;17.40;99.90;;;;;;5015083;28;19980;-24
2022/10/13 11:05:52;;;;;;;;;;;17.50;99.90;;;;;;5015322;28;19928;-24
2022/10/13 11:08:41;;;;;;;;;;;17.50;99.90;;;;;;5015162;28;19905;-24
2022/10/13 11:11:19;;;;;;;;;;;17.40;99.90;;;;;;5012002;28;19956;-24
2022/10/13 11:14:03;;;;;;;;;;;17.40;99.90;;;;;;5013514;28;19913;-24
2022/10/13 11:16:37;;;;;;;;;;;17.40;99.90;;;;;;5014934;28;19948;-24
2022/10/13 11:19:06;;;;;;;;;;;17.50;99.90;;;;;;5014871;28;19912;-24
2022/10/13 11:21:50;;;;;;;;;;;17.40;99.90;;;;;;5014621;28;20312;-24
2022/10/13 11:24:41;;;;;;;;;;;17.30;99.90;;;;;;5014661;28;19963;-24
2022/10/13 11:27:07;;;;;;;;;;;17.40;99.90;;;;;;5014799;28;19909;-24
2022/10/13 11:29:52;;;;;;;;;;;17.40;99.90;;;;;;5014456;28;20290;-24
2022/10/13 11:32:29;;;;;;;;;;;17.40;99.90;;;;;;5014573;28;19909;-24
2022/10/13 11:35:04;;;;;;;;;;;17.50;99.90;;;;;;5014324;28;19913;-24
2022/10/13 11:37:54;;;;;;;;;;;17.50;99.90;;;;;;5014458;28;19912;-24
2022/10/13 11:40:38;;;;;;;;;;;17.50;99.90;;;;;;5013563;28;20274;-24
2022/10/13 11:43:06;;;;;;;;;;;17.50;99.90;;;;;;5014583;28;20314;-24
2022/10/13 11:45:32;;;;;;;;;;;17.50;99.90;;;;;;5014136;28;19906;-24
2022/10/13 11:47:57;;;;;;;;;;;17.50;99.90;;;;;;5013018;28;19905;-24
2022/10/13 11:50:32;;;;;;;;;;;17.50;99.90;;;;;;5014120;28;20363;-24
2022/10/13 11:53:05;;;;;;;;;;;17.50;99.90;;;;;;5014403;28;19906;-23
2022/10/13 11:55:36;;;;;;;;;;;17.50;99.90;;;;;;5014434;28;19912;-24
2022/10/13 11:58:22;;;;;;;;;;;17.50;99.90;;;;;;5015127;28;19964;-24
2022/10/13 12:00:54;;;;;;;;;;;17.50;99.90;;;;;;5010552;28;20286;-24
2022/10/13 12:03:21;;;;;;;;;;;17.50;99.90;;;;;;5014423;28;19920;-23
2022/10/13 12:05:48;;;;;;;;;;;17.50;99.90;;;;;;5014177;28;19985;-24
2022/10/13 12:08:14;;;;;;;;;;;17.50;99.90;;;;;;5014458;28;19906;-24
2022/10/13 12:10:39;;;;;;;;;;;17.50;99.90;;;;;;5014419;28;19964;-23
2022/10/13 12:13:05;;;;;;;;;;;17.60;99.90;;;;;;5013977;28;20346;-23
2022/10/13 12:15:34;;;;;;;;;;;17.60;99.90;;;;;;5014170;28;19959;-24
2022/10/13 12:17:59;;;;;;;;;;;17.60;99.90;;;;;;5013651;28;19905;-24
2022/10/13 12:20:27;;;;;;;;;;;17.60;99.90;;;;;;5013563;28;19913;-24
2022/10/13 12:22:53;;;;;;;;;;;17.60;99.90;;;;;;5013743;28;20112;-24
2022/10/13 12:25:20;;;;;;;;;;;17.60;99.90;;;;;;5013502;28;19925;-24
2022/10/13 12:27:47;;;;;;;;;;;17.60;99.90;;;;;;5013502;28;19906;-25
2022/10/13 12:30:19;;;;;;;;;;;17.60;99.90;;;;;;5013508;28;19906;-23
2022/10/13 12:32:48;;;;;;;;;;;17.60;99.90;;;;;;5011914;28;19932;-23
2022/10/13 12:35:22;;;;;;;;;;;17.70;99.90;;;;;;5013469;28;19909;-24
2022/10/13 12:37:48;;;;;;;;;;;17.70;99.90;;;;;;5013543;28;20012;-24
2022/10/13 12:40:15;;;;;;;;;;;17.70;99.90;;;;;;5013477;28;20011;-23
2022/10/13 12:42:41;;;;;;;;;;;17.70;99.90;;;;;;5013112;28;19905;-23
2022/10/13 12:45:13;;;;;;;;;;;17.70;99.90;;;;;;5013200;28;19911;-23
2022/10/13 12:47:44;;;;;;;;;;;17.70;99.90;;;;;;5016687;28;19975;-23
2022/10/13 12:50:28;;;;;;;;;;;17.70;99.90;;;;;;5020534;28;20305;-24
2022/10/13 12:52:54;;;;;;;;;;;17.70;99.90;;;;;;5017156;28;20305;-24
2022/10/13 12:55:21;;;;;;;;;;;17.80;99.90;;;;;;5014513;28;19910;-24
2022/10/13 12:57:47;;;;;;;;;;;17.80;99.90;;;;;;5013087;28;19928;-24
2022/10/13 13:00:19;;;;;;;;;;;17.80;99.90;;;;;;5014713;28;19932;-24
2022/10/13 13:02:52;;;;;;;;;;;17.80;99.90;;;;;;5014024;28;19952;-24
2022/10/13 13:05:32;;;;;;;;;;;17.80;99.90;;;;;;5014281;28;19958;-24
2022/10/13 13:07:57;;;;;;;;;;;17.80;99.90;;;;;;5014223;28;19905;-24
2022/10/13 13:10:23;;;;;;;;;;;17.80;99.90;;;;;;5014324;28;19916;-23
2022/10/13 13:12:49;;;;;;;;;;;17.80;99.90;;;;;;5013710;28;19905;-24
2022/10/13 13:15:18;;;;;;;;;;;17.80;99.90;;;;;;5014165;28;20321;-24
2022/10/13 13:17:49;;;;;;;;;;;17.70;99.90;;;;;;5014200;28;20287;-24
2022/10/13 13:20:25;;;;;;;;;;;17.80;99.90;;;;;;5013984;28;20441;-24
2022/10/13 13:22:51;;;;;;;;;;;17.70;99.90;;;;;;5035684;22;19979;-25
2022/10/13 13:25:16;;;;;;;;;;;17.70;99.90;;;;;;5012983;28;19944;-25
2022/10/13 13:27:42;;;;;;;;;;;17.70;99.90;;;;;;5013303;28;20282;-25
2022/10/13 13:30:11;;;;;;;;;;;17.80;99.90;;;;;;5013085;28;19937;-25
2022/10/13 13:32:37;;;;;;;;;;;17.70;99.90;;;;;;5012785;28;20285;-26
2022/10/13 13:35:02;;;;;;;;;;;17.70;99.90;;;;;;5013262;28;20377;-25
2022/10/13 13:37:31;;;;;;;;;;;17.70;99.90;;;;;;5013130;28;20380;-26
2022/10/13 13:39:57;;;;;;;;;;;17.70;99.90;;;;;;5011773;28;19905;-24
2022/10/13 13:42:23;;;;;;;;;;;17.70;99.90;;;;;;5012863;28;19909;-26
2022/10/13 13:44:48;;;;;;;;;;;17.60;99.90;;;;;;5013351;28;19960;-25
2022/10/13 13:47:21;;;;;;;;;;;17.60;99.90;;;;;;5013410;28;20274;-25
2022/10/13 13:49:47;;;;;;;;;;;17.60;99.90;;;;;;5013073;28;20345;-26
2022/10/13 13:52:13;;;;;;;;;;;17.60;99.90;;;;;;5012811;28;19919;-25
2022/10/13 13:54:41;;;;;;;;;;;17.60;99.90;;;;;;5013044;28;19913;-25
2022/10/13 13:57:06;;;;;;;;;;;17.60;99.90;;;;;;5012950;28;19909;-26
2022/10/13 13:59:32;;;;;;;;;;;17.50;99.90;;;;;;5012750;28;20267;-25
2022/10/13 14:01:57;;;;;;;;;;;17.60;99.90;;;;;;5012954;28;19921;-25
2022/10/13 14:04:23;;;;;;;;;;;17.60;99.90;;;;;;5012927;28;20381;-25
2022/10/13 14:06:50;;;;;;;;;;;17.60;99.90;;;;;;5012999;28;20446;-25
2022/10/13 14:09:15;;;;;;;;;;;17.60;99.90;;;;;;5015820;28;19906;-25
2022/10/13 14:11:41;;;;;;;;;;;17.60;99.90;;;;;;5016647;28;19921;-26
2022/10/13 14:14:06;;;;;;;;;;;17.60;99.90;;;;;;5016613;28;19936;-25
2022/10/13 14:16:32;;;;;;;;;;;17.50;99.90;;;;;;5016749;28;19999;-25
2022/10/13 14:18:57;;;;;;;;;;;17.50;99.90;;;;;;5016957;28;19909;-25
2022/10/13 14:21:23;;;;;;;;;;;17.50;99.90;;;;;;5016563;28;20442;-25
2022/10/13 14:23:48;;;;;;;;;;;17.50;99.90;;;;;;5016808;28;19905;-25